createdAt,value
2019-06-08T00:00:20.721Z,93.77
2019-06-08T00:01:20.575Z,93.77
2019-06-08T00:02:20.687Z,93.67
2019-06-08T00:03:20.689Z,93.37
2019-06-08T00:04:20.655Z,93.67
2019-06-08T00:05:21.017Z,94.08
2019-06-08T00:06:20.785Z,94.08
2019-06-08T00:07:20.805Z,94.18
2019-06-08T00:08:20.884Z,93.98
2019-06-08T00:09:20.851Z,94.23
2019-06-08T00:10:22.717Z,94.84
2019-06-08T00:11:21.140Z,94.43
2019-06-08T00:12:19.608Z,94.64
2019-06-08T00:13:19.826Z,95.04
2019-06-08T00:14:19.580Z,95.15
2019-06-08T00:15:20.268Z,95.04
2019-06-08T00:16:19.559Z,94.94
2019-06-08T00:17:34.573Z,94.84
2019-06-08T00:18:21.541Z,94.64
2019-06-08T00:19:19.529Z,94.23
2019-06-08T00:20:19.799Z,94.43
2019-06-08T00:21:19.680Z,94.43
2019-06-08T00:22:19.800Z,94.23
2019-06-08T00:23:20.080Z,93.62
2019-06-08T00:24:19.898Z,93.71
2019-06-08T00:25:20.827Z,93.71
2019-06-08T00:26:20.060Z,94.12
2019-06-08T00:27:20.214Z,94.74
2019-06-08T00:28:20.447Z,94.84
2019-06-08T00:29:20.325Z,94.84
2019-06-08T00:30:19.421Z,95.45
2019-06-08T00:31:20.118Z,95.60
2019-06-08T00:32:20.343Z,95.70
2019-06-08T00:33:20.494Z,96.11
2019-06-08T00:34:20.443Z,95.90
2019-06-08T00:35:20.670Z,95.70
2019-06-08T00:36:19.337Z,92.74
2019-06-08T00:37:19.353Z,92.54
2019-06-08T00:38:19.345Z,91.52
2019-06-08T00:39:19.327Z,93.15
2019-06-08T00:40:19.337Z,87.63
2019-06-08T00:41:20.660Z,88.82
2019-06-08T00:42:19.371Z,90.96
2019-06-08T00:43:19.284Z,89.63
2019-06-08T00:44:19.321Z,89.63
2019-06-08T00:45:20.027Z,90.25
2019-06-08T00:46:19.437Z,86.36
2019-06-08T00:47:20.286Z,87.85
2019-06-08T00:48:19.813Z,85.92
2019-06-08T00:49:19.204Z,87.35
2019-06-08T00:50:19.217Z,87.55
2019-06-08T00:51:19.184Z,88.17
2019-06-08T00:52:19.194Z,88.47
2019-06-08T00:53:19.762Z,88.26
2019-06-08T00:54:19.311Z,85.30
2019-06-08T00:55:19.483Z,85.41
2019-06-08T00:56:19.424Z,85.82
2019-06-08T00:57:19.718Z,86.22
2019-06-08T00:58:20.394Z,84.04
2019-06-08T00:59:19.941Z,82.10
2019-06-08T01:00:20.424Z,83.53
2019-06-08T01:01:20.805Z,81.59
2019-06-08T01:02:20.151Z,81.59
2019-06-08T01:03:19.615Z,81.80
2019-06-08T01:04:19.042Z,82.82
2019-06-08T01:05:19.878Z,82.88
2019-06-08T01:06:19.054Z,79.93
2019-06-08T01:07:19.927Z,81.04
2019-06-08T01:08:20.663Z,80.02
2019-06-08T01:09:20.139Z,79.72
2019-06-08T01:10:19.233Z,79.52
2019-06-08T01:11:18.971Z,78.80
2019-06-08T01:12:19.034Z,77.98
2019-06-08T01:13:18.961Z,79.11
2019-06-08T01:14:18.974Z,79.82
2019-06-08T01:15:24.847Z,80.33
2019-06-08T01:16:20.933Z,78.70
2019-06-08T01:17:19.336Z,79.21
2019-06-08T01:18:20.749Z,80.23
2019-06-08T01:19:19.232Z,80.33
2019-06-08T01:20:19.481Z,77.68
2019-06-08T01:21:19.414Z,76.93
2019-06-08T01:22:19.495Z,76.62
2019-06-08T01:23:19.467Z,78.97
2019-06-08T01:24:19.640Z,80.19
2019-06-08T01:25:20.122Z,80.80
2019-06-08T01:26:19.809Z,80.09
2019-06-08T01:27:19.986Z,78.16
2019-06-08T01:28:19.936Z,77.75
2019-06-08T01:29:20.113Z,77.75
2019-06-08T01:30:20.000Z,79.89
2019-06-08T01:31:20.276Z,80.09
2019-06-08T01:32:18.767Z,80.70
2019-06-08T01:33:18.738Z,81.45
2019-06-08T01:34:18.709Z,82.07
2019-06-08T01:35:18.713Z,82.68
2019-06-08T01:36:18.698Z,83.70
2019-06-08T01:37:18.670Z,83.80
2019-06-08T01:38:18.715Z,78.19
2019-06-08T01:39:18.668Z,78.70
2019-06-08T01:40:18.647Z,79.32
2019-06-08T01:41:18.628Z,80.74
2019-06-08T01:42:18.618Z,79.00
2019-06-08T01:43:18.626Z,79.52
2019-06-08T01:44:18.590Z,81.25
2019-06-08T01:45:18.587Z,78.91
2019-06-08T01:46:18.590Z,79.11
2019-06-08T01:47:18.606Z,79.21
2019-06-08T01:48:20.541Z,78.19
2019-06-08T01:49:18.547Z,78.60
2019-06-08T01:50:18.526Z,77.78
2019-06-08T01:51:18.550Z,79.00
2019-06-08T01:52:18.503Z,79.72
2019-06-08T01:53:18.514Z,80.94
2019-06-08T01:54:18.476Z,79.32
2019-06-08T01:55:18.484Z,77.78
2019-06-08T01:56:18.464Z,77.78
2019-06-08T01:57:18.454Z,76.05
2019-06-08T01:58:18.446Z,77.44
2019-06-08T01:59:18.424Z,76.42
2019-06-08T02:00:29.679Z,76.73
2019-06-08T02:01:19.409Z,77.55
2019-06-08T02:02:18.402Z,77.64
2019-06-08T02:03:18.471Z,76.01
2019-06-08T02:04:18.375Z,76.22
2019-06-08T02:05:18.374Z,76.62
2019-06-08T02:06:18.479Z,76.73
2019-06-08T02:07:18.411Z,75.20
2019-06-08T02:08:18.408Z,75.20
2019-06-08T02:09:18.343Z,76.22
2019-06-08T02:10:18.328Z,75.92
2019-06-08T02:11:18.294Z,76.53
2019-06-08T02:12:18.283Z,74.58
2019-06-08T02:13:18.315Z,72.55
2019-06-08T02:14:18.271Z,73.54
2019-06-08T02:15:18.261Z,74.96
2019-06-08T02:16:18.243Z,72.41
2019-06-08T02:17:18.223Z,72.72
2019-06-08T02:18:18.243Z,74.15
2019-06-08T02:19:18.263Z,72.82
2019-06-08T02:20:18.212Z,72.92
2019-06-08T02:21:18.183Z,73.54
2019-06-08T02:22:18.172Z,74.55
2019-06-08T02:23:18.162Z,74.96
2019-06-08T02:24:18.163Z,73.77
2019-06-08T02:25:18.160Z,74.90
2019-06-08T02:26:18.122Z,73.97
2019-06-08T02:27:18.134Z,73.57
2019-06-08T02:28:18.105Z,74.38
2019-06-08T02:29:18.101Z,72.14
2019-06-08T02:30:18.082Z,71.63
2019-06-08T02:31:18.077Z,72.86
2019-06-08T02:32:18.062Z,72.41
2019-06-08T02:33:18.072Z,72.62
2019-06-08T02:34:18.059Z,71.80
2019-06-08T02:35:18.022Z,71.60
2019-06-08T02:36:18.019Z,71.09
2019-06-08T02:37:18.020Z,72.01
2019-06-08T02:38:17.990Z,70.17
2019-06-08T02:39:17.993Z,70.17
2019-06-08T02:40:17.971Z,71.91
2019-06-08T02:41:17.972Z,72.52
2019-06-08T02:42:17.982Z,71.50
2019-06-08T02:43:17.941Z,71.09
2019-06-08T02:44:17.941Z,71.91
2019-06-08T02:45:17.910Z,70.89
2019-06-08T02:46:17.922Z,72.92
2019-06-08T02:47:17.890Z,71.94
2019-06-08T02:48:17.881Z,72.24
2019-06-08T02:49:17.880Z,73.06
2019-06-08T02:50:17.860Z,73.16
2019-06-08T02:51:17.870Z,73.57
2019-06-08T02:52:17.839Z,73.47
2019-06-08T02:53:17.828Z,72.65
2019-06-08T02:54:17.829Z,72.75
2019-06-08T02:55:17.811Z,72.75
2019-06-08T02:56:17.820Z,73.97
2019-06-08T02:57:17.790Z,72.24
2019-06-08T02:58:17.771Z,71.53
2019-06-08T02:59:17.778Z,70.51
2019-06-08T03:00:17.758Z,70.31
2019-06-08T03:01:17.759Z,71.33
2019-06-08T03:02:17.736Z,69.56
2019-06-08T03:03:17.713Z,69.87
2019-06-08T03:04:17.712Z,69.56
2019-06-08T03:05:17.735Z,70.61
2019-06-08T03:06:17.685Z,69.46
2019-06-08T03:07:17.680Z,68.13
2019-06-08T03:08:17.693Z,68.54
2019-06-08T03:09:17.662Z,70.68
2019-06-08T03:10:17.660Z,69.76
2019-06-08T03:11:17.629Z,70.17
2019-06-08T03:12:17.608Z,71.30
2019-06-08T03:13:17.598Z,68.75
2019-06-08T03:14:17.586Z,68.13
2019-06-08T03:15:17.609Z,68.13
2019-06-08T03:16:17.581Z,68.54
2019-06-08T03:17:17.568Z,69.15
2019-06-08T03:18:17.546Z,68.24
2019-06-08T03:19:22.295Z,69.56
2019-06-08T03:20:18.557Z,70.48
2019-06-08T03:21:17.524Z,70.21
2019-06-08T03:22:17.505Z,69.19
2019-06-08T03:23:17.507Z,68.88
2019-06-08T03:24:17.485Z,66.64
2019-06-08T03:25:17.477Z,68.48
2019-06-08T03:26:17.466Z,69.39
2019-06-08T03:27:17.454Z,68.88
2019-06-08T03:28:17.436Z,67.46
2019-06-08T03:29:17.425Z,69.19
2019-06-08T03:30:19.365Z,67.35
2019-06-08T03:31:17.407Z,66.74
2019-06-08T03:32:17.395Z,66.23
2019-06-08T03:33:17.375Z,66.94
2019-06-08T03:34:17.395Z,65.83
2019-06-08T03:35:17.390Z,66.85
2019-06-08T03:36:17.365Z,67.25
2019-06-08T03:37:17.334Z,64.29
2019-06-08T03:38:17.334Z,66.33
2019-06-08T03:39:17.326Z,65.83
2019-06-08T03:40:17.322Z,65.52
2019-06-08T03:41:17.301Z,64.90
2019-06-08T03:42:17.284Z,65.11
2019-06-08T03:43:17.274Z,66.23
2019-06-08T03:44:17.271Z,66.85
2019-06-08T03:45:17.272Z,64.20
2019-06-08T03:46:17.256Z,65.31
2019-06-08T03:47:17.251Z,65.42
2019-06-08T03:48:17.223Z,66.64
2019-06-08T03:49:17.202Z,66.33
2019-06-08T03:50:17.212Z,64.40
2019-06-08T03:51:17.203Z,63.07
2019-06-08T03:52:17.180Z,64.20
2019-06-08T03:53:17.164Z,64.60
2019-06-08T03:54:17.160Z,63.58
2019-06-08T03:55:17.164Z,62.97
2019-06-08T03:56:17.132Z,64.81
2019-06-08T03:57:17.143Z,65.22
2019-06-08T03:58:17.111Z,65.42
2019-06-08T03:59:17.102Z,65.42
2019-06-08T04:00:17.128Z,62.77
2019-06-08T04:01:17.097Z,62.36
2019-06-08T04:02:17.070Z,64.09
2019-06-08T04:03:17.059Z,63.48
2019-06-08T04:04:17.054Z,64.81
2019-06-08T04:05:17.031Z,65.11
2019-06-08T04:06:17.053Z,65.31
2019-06-08T04:07:17.010Z,65.01
2019-06-08T04:08:17.009Z,62.56
2019-06-08T04:09:16.991Z,63.28
2019-06-08T04:10:16.979Z,64.60
2019-06-08T04:11:16.980Z,64.90
2019-06-08T04:12:16.961Z,65.83
2019-06-08T04:13:16.940Z,64.29
2019-06-08T04:14:16.948Z,64.90
2019-06-08T04:15:16.920Z,64.20
2019-06-08T04:16:16.927Z,64.90
2019-06-08T04:17:16.898Z,65.52
2019-06-08T04:18:16.889Z,66.44
2019-06-08T04:19:16.897Z,66.74
2019-06-08T04:20:16.868Z,67.59
2019-06-08T04:21:16.868Z,64.84
2019-06-08T04:22:16.856Z,65.86
2019-06-08T04:23:16.861Z,65.25
2019-06-08T04:24:16.828Z,65.75
2019-06-08T04:25:16.825Z,64.94
2019-06-08T04:26:16.862Z,64.63
2019-06-08T04:27:16.799Z,65.45
2019-06-08T04:28:16.779Z,65.34
2019-06-08T04:29:16.786Z,64.22
2019-06-08T04:30:16.756Z,65.31
2019-06-08T04:31:16.775Z,65.62
2019-06-08T04:32:16.753Z,66.44
2019-06-08T04:33:16.735Z,67.46
2019-06-08T04:34:16.742Z,65.83
2019-06-08T04:35:16.706Z,65.14
2019-06-08T04:36:16.707Z,65.62
2019-06-08T04:37:16.695Z,66.77
2019-06-08T04:38:16.695Z,68.68
2019-06-08T04:39:16.680Z,65.86
2019-06-08T04:40:16.658Z,65.45
2019-06-08T04:41:16.658Z,65.75
2019-06-08T04:42:16.639Z,66.36
2019-06-08T04:43:16.626Z,65.95
2019-06-08T04:44:16.670Z,64.94
2019-06-08T04:45:16.594Z,65.45
2019-06-08T04:46:16.607Z,65.14
2019-06-08T04:47:16.584Z,65.34
2019-06-08T04:48:16.572Z,66.36
2019-06-08T04:49:16.563Z,66.27
2019-06-08T04:50:23.501Z,63.92
2019-06-08T04:51:17.556Z,64.73
2019-06-08T04:52:16.539Z,66.06
2019-06-08T04:53:16.515Z,66.06
2019-06-08T04:54:16.507Z,63.92
2019-06-08T04:55:16.523Z,65.25
2019-06-08T04:56:16.497Z,65.25
2019-06-08T04:57:16.475Z,65.34
2019-06-08T04:58:16.496Z,66.27
2019-06-08T04:59:16.455Z,67.18
2019-06-08T05:00:16.454Z,64.43
2019-06-08T05:01:16.443Z,65.45
2019-06-08T05:02:16.424Z,66.27
2019-06-08T05:03:16.412Z,65.86
2019-06-08T05:04:16.403Z,66.27
2019-06-08T05:05:16.394Z,66.88
2019-06-08T05:06:16.429Z,66.88
2019-06-08T05:07:16.364Z,66.47
2019-06-08T05:08:16.355Z,66.57
2019-06-08T05:09:16.358Z,66.67
2019-06-08T05:10:16.349Z,66.47
2019-06-08T05:11:16.352Z,67.08
2019-06-08T05:12:16.324Z,65.55
2019-06-08T05:13:16.302Z,66.36
2019-06-08T05:14:16.292Z,66.97
2019-06-08T05:15:16.281Z,67.29
2019-06-08T05:16:16.282Z,66.47
2019-06-08T05:17:16.282Z,66.97
2019-06-08T05:18:16.253Z,66.97
2019-06-08T05:19:16.240Z,68.10
2019-06-08T05:20:16.233Z,67.59
2019-06-08T05:21:16.240Z,67.69
2019-06-08T05:22:16.210Z,67.79
2019-06-08T05:23:16.199Z,67.93
2019-06-08T05:24:16.218Z,67.82
2019-06-08T05:25:16.189Z,67.01
2019-06-08T05:26:16.181Z,65.17
2019-06-08T05:27:16.159Z,65.58
2019-06-08T05:28:16.140Z,66.77
2019-06-08T05:29:16.130Z,67.90
2019-06-08T05:30:16.119Z,66.27
2019-06-08T05:31:16.139Z,65.86
2019-06-08T05:32:16.112Z,66.57
2019-06-08T05:33:16.091Z,67.38
2019-06-08T05:34:16.078Z,67.90
2019-06-08T05:35:16.079Z,67.99
2019-06-08T05:36:16.058Z,68.30
2019-06-08T05:37:16.058Z,67.69
2019-06-08T05:38:16.040Z,68.71
2019-06-08T05:39:16.026Z,68.40
2019-06-08T05:40:16.023Z,67.90
2019-06-08T05:41:15.999Z,67.49
2019-06-08T05:42:15.997Z,67.96
2019-06-08T05:43:15.977Z,67.76
2019-06-08T05:44:15.978Z,68.48
2019-06-08T05:45:15.960Z,68.88
2019-06-08T05:46:15.955Z,65.72
2019-06-08T05:47:15.948Z,66.44
2019-06-08T05:48:15.929Z,65.72
2019-06-08T05:49:15.917Z,67.05
2019-06-08T05:50:15.908Z,67.96
2019-06-08T05:51:15.905Z,68.24
2019-06-08T05:52:15.886Z,68.34
2019-06-08T05:53:15.866Z,69.06
2019-06-08T05:54:15.856Z,69.06
2019-06-08T05:55:15.848Z,68.24
2019-06-08T05:56:15.836Z,69.36
2019-06-08T05:57:15.848Z,67.83
2019-06-08T05:58:15.806Z,68.44
2019-06-08T05:59:15.805Z,66.10
2019-06-08T06:00:15.795Z,66.20
2019-06-08T06:01:23.574Z,66.30
2019-06-08T06:02:15.803Z,65.49
2019-06-08T06:03:15.766Z,67.32
2019-06-08T06:04:15.743Z,67.60
2019-06-08T06:05:15.734Z,63.12
2019-06-08T06:06:15.724Z,65.16
2019-06-08T06:07:15.723Z,66.38
2019-06-08T06:08:18.946Z,65.66
2019-06-08T06:09:15.692Z,65.36
2019-06-08T06:10:15.683Z,65.77
2019-06-08T06:11:15.671Z,63.83
2019-06-08T06:12:15.672Z,63.53
2019-06-08T06:13:15.644Z,63.83
2019-06-08T06:14:15.641Z,64.44
2019-06-08T06:15:15.632Z,65.36
2019-06-08T06:16:15.612Z,62.61
2019-06-08T06:17:15.620Z,64.23
2019-06-08T06:18:15.603Z,63.39
2019-06-08T06:19:15.581Z,62.48
2019-06-08T06:20:15.580Z,60.64
2019-06-08T06:21:15.561Z,59.83
2019-06-08T06:22:15.562Z,62.58
2019-06-08T06:23:15.541Z,61.56
2019-06-08T06:24:15.541Z,61.56
2019-06-08T06:25:15.539Z,60.34
2019-06-08T06:26:15.506Z,59.83
2019-06-08T06:27:15.490Z,60.95
2019-06-08T06:28:15.495Z,61.97
2019-06-08T06:29:15.470Z,58.20
2019-06-08T06:30:15.469Z,58.89
2019-06-08T06:31:15.454Z,59.19
2019-06-08T06:32:15.440Z,59.80
2019-06-08T06:33:15.456Z,58.99
2019-06-08T06:34:15.421Z,59.30
2019-06-08T06:35:15.400Z,58.10
2019-06-08T06:36:15.389Z,57.90
2019-06-08T06:37:15.382Z,58.78
2019-06-08T06:38:15.382Z,56.45
2019-06-08T06:39:15.362Z,59.50
2019-06-08T06:40:15.346Z,58.48
2019-06-08T06:41:15.329Z,59.50
2019-06-08T06:42:15.329Z,56.04
2019-06-08T06:43:15.319Z,58.58
2019-06-08T06:44:15.299Z,57.87
2019-06-08T06:45:15.298Z,55.22
2019-06-08T06:46:15.279Z,56.04
2019-06-08T06:47:15.269Z,58.38
2019-06-08T06:48:15.267Z,56.04
2019-06-08T06:49:15.241Z,56.34
2019-06-08T06:50:15.248Z,55.73
2019-06-08T06:51:25.709Z,55.33
2019-06-08T06:52:16.208Z,54.72
2019-06-08T06:53:15.217Z,57.77
2019-06-08T06:54:15.196Z,56.55
2019-06-08T06:55:15.176Z,56.95
2019-06-08T06:56:15.166Z,55.22
2019-06-08T06:57:15.157Z,56.32
2019-06-08T06:58:15.147Z,54.90
2019-06-08T06:59:15.127Z,55.00
2019-06-08T07:00:15.117Z,56.21
2019-06-08T07:01:15.107Z,56.42
2019-06-08T07:02:15.097Z,52.35
2019-06-08T07:03:15.097Z,52.96
2019-06-08T07:04:15.066Z,54.66
2019-06-08T07:05:15.064Z,54.57
2019-06-08T07:06:15.046Z,53.45
2019-06-08T07:07:15.035Z,50.40
2019-06-08T07:08:15.035Z,50.12
2019-06-08T07:09:15.025Z,49.91
2019-06-08T07:10:14.995Z,51.23
2019-06-08T07:11:14.985Z,50.12
2019-06-08T07:12:14.975Z,51.95
2019-06-08T07:13:14.975Z,51.23
2019-06-08T07:14:14.954Z,53.78
2019-06-08T07:15:15.009Z,52.96
2019-06-08T07:16:18.862Z,53.78
2019-06-08T07:17:15.170Z,53.37
2019-06-08T07:18:14.924Z,53.47
2019-06-08T07:19:14.910Z,51.03
2019-06-08T07:20:14.932Z,53.06
2019-06-08T07:21:14.878Z,53.37
2019-06-08T07:22:14.858Z,53.27
2019-06-08T07:23:14.865Z,54.08
2019-06-08T07:24:14.833Z,53.06
2019-06-08T07:25:14.822Z,53.88
2019-06-08T07:26:14.804Z,55.00
2019-06-08T07:27:14.805Z,52.25
2019-06-08T07:28:14.814Z,50.42
2019-06-08T07:29:16.026Z,51.01
2019-06-08T07:30:14.769Z,53.34
2019-06-08T07:31:14.742Z,50.60
2019-06-08T07:32:14.743Z,49.79
2019-06-08T07:33:14.724Z,50.29
2019-06-08T07:34:14.722Z,51.92
2019-06-08T07:35:14.693Z,53.45
2019-06-08T07:36:14.682Z,53.02
2019-06-08T07:37:14.672Z,54.03
2019-06-08T07:38:14.662Z,53.72
2019-06-08T07:39:14.662Z,53.32
2019-06-08T07:40:14.641Z,52.91
2019-06-08T07:41:14.630Z,51.92
2019-06-08T07:42:14.621Z,50.70
2019-06-08T07:43:14.612Z,51.31
2019-06-08T07:44:14.606Z,48.67
2019-06-08T07:45:14.580Z,49.69
2019-06-08T07:46:14.561Z,49.99
2019-06-08T07:47:14.561Z,48.16
2019-06-08T07:48:14.542Z,49.89
2019-06-08T07:49:14.548Z,47.45
2019-06-08T07:50:14.520Z,48.44
2019-06-08T07:51:14.512Z,49.66
2019-06-08T07:52:14.492Z,51.09
2019-06-08T07:53:14.489Z,48.85
2019-06-08T07:54:14.491Z,47.94
2019-06-08T07:55:14.459Z,47.63
2019-06-08T07:56:14.450Z,47.74
2019-06-08T07:57:14.438Z,48.44
2019-06-08T07:58:14.428Z,47.74
2019-06-08T07:59:14.432Z,47.63
2019-06-08T08:00:14.399Z,46.62
2019-06-08T08:01:14.398Z,47.13
2019-06-08T08:02:14.378Z,48.14
2019-06-08T08:03:14.369Z,47.94
2019-06-08T08:04:14.368Z,47.02
2019-06-08T08:05:14.351Z,48.75
2019-06-08T08:06:14.338Z,49.66
2019-06-08T08:07:14.330Z,48.95
2019-06-08T08:08:14.308Z,45.48
2019-06-08T08:09:14.309Z,46.70
2019-06-08T08:10:14.456Z,48.22
2019-06-08T08:11:14.277Z,47.91
2019-06-08T08:12:14.269Z,46.19
2019-06-08T08:13:14.259Z,47.81
2019-06-08T08:14:14.258Z,47.81
2019-06-08T08:15:14.236Z,48.32
2019-06-08T08:16:14.218Z,50.35
2019-06-08T08:17:14.209Z,48.72
2019-06-08T08:18:14.197Z,49.41
2019-06-08T08:19:14.201Z,49.11
2019-06-08T08:20:14.175Z,47.89
2019-06-08T08:21:22.144Z,44.95
2019-06-08T08:22:23.141Z,45.97
2019-06-08T08:23:17.273Z,45.25
2019-06-08T08:24:14.137Z,47.08
2019-06-08T08:25:14.121Z,46.57
2019-06-08T08:26:14.106Z,45.36
2019-06-08T08:27:14.096Z,43.84
2019-06-08T08:28:14.076Z,45.46
2019-06-08T08:29:14.077Z,47.28
2019-06-08T08:30:14.056Z,46.57
2019-06-08T08:31:15.365Z,44.65
2019-06-08T08:32:14.035Z,44.74
2019-06-08T08:33:14.026Z,43.43
2019-06-08T08:34:14.024Z,45.46
2019-06-08T08:35:13.995Z,45.56
2019-06-08T08:36:13.986Z,43.02
2019-06-08T08:37:13.975Z,43.23
2019-06-08T08:38:13.965Z,45.46
2019-06-08T08:39:13.965Z,46.78
2019-06-08T08:40:13.934Z,45.66
2019-06-08T08:41:13.946Z,46.25
2019-06-08T08:42:13.923Z,46.75
2019-06-08T08:43:13.905Z,47.56
2019-06-08T08:44:13.905Z,46.35
2019-06-08T08:45:13.884Z,44.82
2019-06-08T08:46:13.874Z,44.73
2019-06-08T08:47:13.863Z,43.91
2019-06-08T08:48:24.602Z,46.25
2019-06-08T08:49:14.844Z,42.90
2019-06-08T08:50:13.823Z,44.01
2019-06-08T08:51:13.814Z,45.23
2019-06-08T08:52:13.803Z,47.03
2019-06-08T08:53:13.783Z,45.11
2019-06-08T08:54:13.811Z,45.01
2019-06-08T08:55:13.773Z,45.92
2019-06-08T08:56:13.760Z,45.72
2019-06-08T08:57:13.742Z,44.30
2019-06-08T08:58:13.731Z,43.18
2019-06-08T08:59:13.723Z,44.10
2019-06-08T09:00:13.722Z,45.50
2019-06-08T09:01:13.697Z,44.18
2019-06-08T09:02:13.694Z,45.70
2019-06-08T09:03:26.048Z,45.70
2019-06-08T09:04:14.663Z,42.76
2019-06-08T09:05:13.661Z,43.16
2019-06-08T09:06:13.632Z,43.87
2019-06-08T09:07:13.622Z,44.99
2019-06-08T09:08:13.617Z,44.38
2019-06-08T09:09:13.612Z,44.68
2019-06-08T09:10:13.600Z,42.25
2019-06-08T09:11:13.572Z,41.95
2019-06-08T09:12:13.564Z,41.74
2019-06-08T09:13:13.552Z,41.44
2019-06-08T09:14:14.382Z,42.76
2019-06-08T09:15:13.547Z,43.16
2019-06-08T09:16:13.521Z,42.25
2019-06-08T09:17:13.502Z,44.15
2019-06-08T09:18:13.498Z,43.04
2019-06-08T09:19:13.471Z,41.72
2019-06-08T09:20:15.860Z,44.46
2019-06-08T09:21:14.451Z,42.23
2019-06-08T09:22:13.443Z,43.26
2019-06-08T09:23:16.633Z,44.78
2019-06-08T09:24:14.411Z,43.77
2019-06-08T09:25:13.755Z,44.27
2019-06-08T09:26:13.474Z,43.77
2019-06-08T09:27:13.380Z,44.99
2019-06-08T09:28:13.370Z,44.87
2019-06-08T09:29:13.404Z,44.56
2019-06-08T09:30:13.350Z,41.02
2019-06-08T09:31:13.349Z,42.74
2019-06-08T09:32:13.319Z,41.42
2019-06-08T09:33:13.309Z,43.14
2019-06-08T09:34:15.404Z,43.95
2019-06-08T09:35:13.289Z,44.46
2019-06-08T09:36:13.271Z,43.55
2019-06-08T09:37:13.266Z,42.41
2019-06-08T09:38:13.243Z,41.60
2019-06-08T09:39:13.688Z,41.80
2019-06-08T09:40:13.245Z,40.69
2019-06-08T09:41:13.207Z,42.21
2019-06-08T09:42:13.194Z,44.64
2019-06-08T09:43:13.497Z,42.52
2019-06-08T09:44:13.227Z,46.67
2019-06-08T09:45:13.180Z,45.55
2019-06-08T09:46:13.138Z,42.92
2019-06-08T09:47:13.217Z,42.92
2019-06-08T09:48:13.118Z,42.82
2019-06-08T09:49:13.127Z,44.34
2019-06-08T09:50:13.099Z,43.00
2019-06-08T09:51:13.078Z,42.80
2019-06-08T09:52:13.062Z,42.29
2019-06-08T09:53:23.771Z,41.58
2019-06-08T09:54:14.105Z,42.68
2019-06-08T09:55:13.057Z,42.07
2019-06-08T09:56:13.027Z,43.69
2019-06-08T09:57:12.999Z,42.27
2019-06-08T09:58:13.003Z,41.95
2019-06-08T09:59:15.261Z,43.97
2019-06-08T10:00:18.302Z,43.16
2019-06-08T10:01:13.957Z,43.67
2019-06-08T10:02:13.302Z,44.48
2019-06-08T10:03:12.990Z,43.44
2019-06-08T10:04:12.922Z,45.37
2019-06-08T10:05:12.897Z,40.82
2019-06-08T10:06:12.909Z,42.23
2019-06-08T10:07:12.876Z,41.93
2019-06-08T10:08:12.856Z,43.14
2019-06-08T10:09:12.854Z,44.35
2019-06-08T10:10:12.849Z,44.74
2019-06-08T10:11:12.837Z,40.09
2019-06-08T10:12:12.817Z,40.30
2019-06-08T10:13:12.813Z,37.79
2019-06-08T10:14:13.038Z,38.29
2019-06-08T10:15:12.844Z,39.20
2019-06-08T10:16:12.786Z,39.20
2019-06-08T10:17:12.755Z,41.12
2019-06-08T10:18:12.737Z,41.32
2019-06-08T10:19:12.725Z,38.90
2019-06-08T10:20:12.719Z,41.93
2019-06-08T10:21:12.769Z,41.02
2019-06-08T10:22:12.685Z,37.38
2019-06-08T10:23:30.368Z,39.81
2019-06-08T10:24:13.664Z,42.84
2019-06-08T10:25:12.645Z,42.84
2019-06-08T10:26:12.653Z,41.22
2019-06-08T10:27:12.635Z,40.92
2019-06-08T10:28:15.875Z,40.61
2019-06-08T10:29:13.595Z,37.79
2019-06-08T10:30:12.588Z,37.68
2019-06-08T10:31:12.587Z,38.70
2019-06-08T10:32:12.583Z,38.70
2019-06-08T10:33:12.544Z,38.68
2019-06-08T10:34:12.550Z,39.48
2019-06-08T10:35:12.527Z,42.21
2019-06-08T10:36:13.076Z,41.81
2019-06-08T10:37:13.500Z,39.89
2019-06-08T10:38:12.484Z,44.01
2019-06-08T10:39:12.484Z,41.99
2019-06-08T10:40:12.465Z,43.80
2019-06-08T10:41:20.914Z,43.30
2019-06-08T10:42:13.449Z,42.18
2019-06-08T10:43:12.424Z,38.04
2019-06-08T10:44:14.311Z,37.33
2019-06-08T10:45:14.742Z,36.74
2019-06-08T10:46:17.127Z,38.26
2019-06-08T10:47:13.371Z,39.67
2019-06-08T10:48:12.363Z,38.35
2019-06-08T10:49:14.216Z,41.28
2019-06-08T10:50:15.419Z,42.18
2019-06-08T10:51:13.118Z,39.95
2019-06-08T10:52:12.523Z,41.56
2019-06-08T10:53:13.671Z,42.98
2019-06-08T10:54:12.302Z,44.07
2019-06-08T10:55:12.651Z,40.94
2019-06-08T10:56:12.565Z,42.96
2019-06-08T10:57:12.308Z,40.74
2019-06-08T10:58:12.235Z,38.82
2019-06-08T10:59:12.546Z,37.41
2019-06-08T11:00:20.116Z,38.42
2019-06-08T11:01:13.572Z,40.94
2019-06-08T11:02:14.203Z,38.22
2019-06-08T11:03:12.184Z,37.70
2019-06-08T11:04:12.185Z,40.42
2019-06-08T11:05:14.053Z,41.22
2019-06-08T11:06:13.319Z,40.62
2019-06-08T11:07:15.533Z,38.91
2019-06-08T11:08:14.456Z,39.51
2019-06-08T11:09:14.836Z,39.51
2019-06-08T11:10:12.653Z,37.60
2019-06-08T11:11:12.141Z,36.29
2019-06-08T11:12:14.943Z,38.30
2019-06-08T11:13:14.889Z,40.22
2019-06-08T11:14:13.173Z,40.52
2019-06-08T11:15:12.036Z,41.33
2019-06-08T11:16:13.258Z,38.69
2019-06-08T11:17:12.015Z,36.67
2019-06-08T11:18:13.540Z,36.07
2019-06-08T11:19:13.761Z,36.77
2019-06-08T11:20:13.677Z,35.46
2019-06-08T11:21:12.879Z,36.17
2019-06-08T11:22:14.436Z,37.68
2019-06-08T11:23:12.560Z,36.57
2019-06-08T11:24:23.316Z,35.66
2019-06-08T11:25:16.142Z,39.19
2019-06-08T11:26:19.719Z,35.26
2019-06-08T11:27:13.200Z,36.17
2019-06-08T11:28:14.973Z,34.45
2019-06-08T11:29:13.831Z,36.27
2019-06-08T11:30:20.385Z,39.09
2019-06-08T11:31:15.839Z,38.67
2019-06-08T11:32:12.811Z,34.84
2019-06-08T11:33:12.565Z,34.64
2019-06-08T11:34:12.768Z,40.58
2019-06-08T11:35:12.660Z,38.07
2019-06-08T11:36:14.950Z,37.24
2019-06-08T11:37:13.583Z,38.05
2019-06-08T11:38:12.756Z,41.06
2019-06-08T11:39:12.790Z,39.64
2019-06-08T11:40:12.978Z,39.43
2019-06-08T11:41:13.630Z,35.21
2019-06-08T11:42:13.064Z,38.73
2019-06-08T11:43:12.778Z,34.91
2019-06-08T11:44:14.675Z,35.31
2019-06-08T11:45:13.056Z,36.02
2019-06-08T11:46:12.788Z,35.71
2019-06-08T11:47:13.350Z,34.61
2019-06-08T11:48:12.398Z,34.32
2019-06-08T11:49:14.884Z,34.92
2019-06-08T11:50:13.266Z,36.24
2019-06-08T11:51:12.989Z,37.34
2019-06-08T11:52:11.626Z,40.75
2019-06-08T11:53:14.390Z,39.64
2019-06-08T11:54:27.115Z,39.22
2019-06-08T11:55:13.156Z,38.71
2019-06-08T11:56:13.425Z,40.42
2019-06-08T11:57:12.907Z,37.19
2019-06-08T11:58:13.668Z,38.90
2019-06-08T11:59:14.225Z,38.09
2019-06-08T12:00:24.301Z,35.98
2019-06-08T19:37:36.284Z,50.23
2019-06-08T19:38:38.436Z,49.95
2019-06-08T19:39:36.262Z,49.95
2019-06-08T19:40:37.894Z,49.95
2019-06-08T19:41:38.113Z,50.46
2019-06-08T19:42:44.708Z,50.86
2019-06-08T19:43:39.045Z,50.96
2019-06-08T19:44:38.574Z,50.46
2019-06-08T19:45:39.963Z,50.76
2019-06-08T19:46:36.171Z,51.07
2019-06-08T19:47:36.151Z,50.79
2019-06-08T19:48:36.981Z,50.59
2019-06-08T19:49:38.296Z,50.89
2019-06-08T19:50:38.208Z,51.50
2019-06-08T19:51:38.234Z,51.60
2019-06-08T19:52:41.013Z,52.03
2019-06-08T19:53:42.215Z,52.84
2019-06-08T19:54:38.691Z,52.23
2019-06-08T19:55:36.075Z,52.44
2019-06-08T19:56:38.590Z,52.05
2019-06-08T19:57:36.239Z,51.65
2019-06-08T19:58:50.045Z,51.34
2019-06-08T19:59:38.254Z,51.75
2019-06-08T20:00:38.660Z,51.75
2019-06-08T20:01:37.931Z,51.54
2019-06-08T20:02:36.039Z,52.76
2019-06-08T20:03:37.893Z,52.76
2019-06-08T20:04:38.473Z,52.56
2019-06-08T20:05:37.825Z,52.89
2019-06-08T20:06:37.622Z,52.79
2019-06-08T20:07:37.854Z,52.79
2019-06-08T20:08:37.480Z,52.99
2019-06-08T20:09:37.652Z,53.50
2019-06-08T20:10:35.948Z,54.31
2019-06-08T20:11:37.627Z,54.51
2019-06-08T20:12:37.268Z,54.41
2019-06-08T20:13:37.555Z,54.13
2019-06-08T20:14:37.423Z,54.24
2019-06-08T20:15:43.515Z,54.84
2019-06-08T20:16:37.256Z,55.05
2019-06-08T20:17:37.229Z,54.74
2019-06-08T20:18:37.517Z,54.64
2019-06-08T20:19:37.378Z,54.74
2019-06-08T20:20:38.016Z,54.84
2019-06-08T20:21:37.996Z,54.57
2019-06-08T20:22:37.460Z,54.66
2019-06-08T20:23:38.056Z,54.66
2019-06-08T20:24:37.745Z,54.97
2019-06-08T20:25:38.029Z,54.97
2019-06-08T20:26:37.458Z,55.00
2019-06-08T20:27:37.232Z,55.00
2019-06-08T20:28:37.293Z,55.20